Here is the Quick Look data you requested

The Data originates at the National Weather Service, and is made available here by the UAlbany Department of Atmospheric and Environmental Sciences

Surface Observations

KEMV 151855Z AUTO 00000KT 10SM CLR 35/22 A2997 RMK AO2 T03470215=
KEMV 151915Z AUTO 00000KT 10SM CLR 35/22 A2996 RMK AO2 T03490224=
KEMV 151935Z AUTO 10003KT 10SM CLR 35/22 A2995 RMK AO2 T03460220=
KEMV 151955Z AUTO 00000KT 10SM CLR 35/22 A2994 RMK AO2 T03470221=
KEMV 152015Z AUTO 00000KT 10SM SCT065 35/23 A2994 RMK AO2 T03510229=
KEMV 152035Z AUTO 00000KT 10SM CLR 35/23 A2994 RMK AO2 T03520228=
KEMV 152055Z AUTO 00000KT 10SM CLR 35/21 A2993 RMK AO2 T03490211=
KEMV 152115Z AUTO 00000KT 10SM CLR 35/22 A2992 RMK AO2 T03460222=
KEMV 152135Z AUTO 00000KT 10SM CLR 35/23 A2992 RMK AO2 T03450230=
KEMV 152155Z AUTO 00000KT 10SM CLR 34/24 A2991 RMK AO2 T03390235=
KEMV 152215Z AUTO 16004KT 10SM CLR 34/24 A2990 RMK AO2 T03360236=
KEMV 152235Z AUTO 00000KT 10SM CLR 33/24 A2991 RMK AO2 T03330238=
KEMV 152255Z AUTO 00000KT 10SM CLR 33/24 A2991 RMK AO2 T03310244=
KEMV 152315Z AUTO 00000KT 10SM CLR 33/25 A2991 RMK AO2 T03250248=
KEMV 152335Z AUTO 00000KT 10SM CLR 32/25 A2992 RMK AO2 T03200248=
KEMV 152355Z AUTO 00000KT 10SM CLR 31/25 A2993 RMK AO2 T03130247 10352 20313=
KEMV 160015Z AUTO 00000KT 10SM CLR 31/25 A2993 RMK AO2 T03060248=
KEMV 160035Z AUTO 00000KT 10SM CLR 30/25 A2994 RMK AO2 T03010246=
KEMV 160055Z AUTO 00000KT 10SM CLR 29/25 A2993 RMK AO2 T02940248=
KEMV 160115Z AUTO 00000KT 7SM CLR 29/25 A2992 RMK AO2 T02910247=
KEMV 160135Z AUTO 00000KT 2 1/2SM HZ CLR 29/25 A2993 RMK AO2 T02870246=
KEMV 160155Z AUTO 00000KT 10SM CLR 26/25 A2994 RMK AO2 T02640246=
KEMV 160215Z AUTO 00000KT 10SM CLR 28/24 A2993 RMK AO2 T02820238=
KEMV 160235Z AUTO 00000KT 10SM CLR 28/23 A2993 RMK AO2 T02830232=
KEMV 160255Z AUTO 00000KT 10SM CLR 28/23 A2994 RMK AO2 T02800233=
KEMV 160315Z AUTO 00000KT 10SM CLR 28/23 A2993 RMK AO2 T02760225=
KEMV 160335Z AUTO 00000KT 10SM CLR 27/22 A2994 RMK AO2 T02730221=
KEMV 160355Z AUTO 00000KT 10SM CLR 27/22 A2994 RMK AO2 T02700216=
KEMV 160415Z AUTO 00000KT 10SM CLR 26/22 A2993 RMK AO2 T02640215=
KEMV 160435Z AUTO 00000KT 10SM CLR 26/22 A2994 RMK AO2 T02620215=
KEMV 160455Z AUTO 00000KT 10SM CLR 26/22 A2993 RMK AO2 T02610215=
KEMV 160515Z AUTO 00000KT 10SM CLR 26/22 A2993 RMK AO2 T02590215=
KEMV 160535Z AUTO 00000KT 10SM CLR 26/22 A2993 RMK AO2 T02550215=
KEMV 160555Z AUTO 00000KT 10SM CLR 25/22 A2992 RMK AO2 T02510216 10310 20251=
KEMV 160615Z AUTO 00000KT 10SM CLR 25/22 A2992 RMK AO2 T02500216=
KEMV 160635Z AUTO 00000KT 10SM CLR 25/22 A2992 RMK AO2 T02460216=
KEMV 160655Z AUTO 00000KT 10SM CLR 25/22 A2992 RMK AO2 T02450216 403520216=
KEMV 160715Z AUTO 00000KT 10SM CLR 24/22 A2992 RMK AO2 T02410215=
KEMV 160735Z AUTO 00000KT 10SM CLR 24/22 A2992 RMK AO2 T02380215=
KEMV 160755Z AUTO 00000KT 10SM CLR 24/22 A2992 RMK AO2 T02400215=
KEMV 160815Z AUTO 00000KT 10SM CLR 23/22 A2992 RMK AO2 T02340216=
KEMV 160835Z AUTO 00000KT 10SM CLR 23/22 A2993 RMK AO2 T02330216=
KEMV 160855Z AUTO 00000KT 10SM CLR 23/22 A2994 RMK AO2 LTG DSNT SE T02330219=
KEMV 160915Z AUTO 00000KT 10SM CLR 23/22 A2994 RMK AO2 T02330220=
KEMV 160935Z AUTO 00000KT 10SM CLR 23/22 A2994 RMK AO2 T02320218=
KEMV 160955Z AUTO 00000KT 10SM CLR 23/22 A2994 RMK AO2 T02330220=
KEMV 161015Z AUTO 00000KT 10SM CLR 23/22 A2994 RMK AO2 T02330220=
KEMV 161035Z AUTO 00000KT 10SM CLR 24/22 A2994 RMK AO2 T02350220=
KEMV 161055Z AUTO 00000KT 10SM CLR 24/22 A2994 RMK AO2 T02350220=
KEMV 161115Z AUTO 00000KT 10SM CLR 24/22 A2994 RMK AO2 T02350221=
KEMV 161135Z AUTO 00000KT 10SM CLR 24/22 A2994 RMK AO2 T02420223=
KEMV 161155Z AUTO 00000KT 10SM CLR 25/23 A2995 RMK AO2 T02510226 10251 20229=
KEMV 161215Z AUTO 00000KT 10SM CLR 26/23 A2995 RMK AO2 T02550227=
KEMV 161235Z AUTO 00000KT 10SM CLR 26/23 A2996 RMK AO2 T02560229=
KEMV 161255Z AUTO 00000KT 10SM CLR 26/23 A2996 RMK AO2 T02600230=
KEMV 161315Z AUTO 00000KT 10SM CLR 27/23 A2996 RMK AO2 T02650233=
KEMV 161335Z AUTO 00000KT 10SM CLR 27/24 A2996 RMK AO2 T02680235=
KEMV 161355Z AUTO 00000KT 10SM CLR 27/24 A2996 RMK AO2 T02730235=
KEMV 161415Z AUTO 00000KT 10SM CLR 28/24 A2995 RMK AO2 T02820235=
KEMV 161435Z AUTO 00000KT 10SM CLR 29/24 A2995 RMK AO2 T02880238=
KEMV 161455Z AUTO 00000KT 10SM CLR 29/24 A2996 RMK AO2 T02910239=
KEMV 161515Z AUTO 00000KT 10SM CLR 30/24 A2996 RMK AO2 T02970241=
KEMV 161535Z AUTO 00000KT 10SM CLR 30/24 A2996 RMK AO2 T03000241=
KEMV 161555Z AUTO 00000KT 10SM CLR 31/25 A2996 RMK AO2 T03070245=
KEMV 161615Z AUTO 19006KT 10SM CLR 31/25 A2995 RMK AO2 T03140250=
KEMV 161635Z AUTO 00000KT 10SM CLR 32/25 A2994 RMK AO2 T03170245=
KEMV 161655Z AUTO 00000KT 10SM CLR 32/25 A2994 RMK AO2 T03200249=
KEMV 161715Z AUTO 00000KT 10SM CLR 32/25 A2994 RMK AO2 T03240253=
KEMV 161735Z AUTO 17007KT 10SM CLR 33/25 A2993 RMK AO2 T03290254=
KEMV 161755Z AUTO 17005KT 10SM CLR 33/25 A2993 RMK AO2 T03270250 10330 20252=
KEMV 161815Z AUTO 17008KT 10SM CLR 33/25 A2993 RMK AO2 T03290253=
KEMV 161835Z AUTO 19007KT 10SM CLR 33/25 A2992 RMK AO2 T03270250=
KEMV 161855Z AUTO 17007KT 10SM CLR 33/25 A2992 RMK AO2 T03340254=
KEMV 161915Z AUTO 17005KT 10SM CLR 33/25 A2991 RMK AO2 T03320251=
KEMV 161935Z AUTO 17008KT 140V200 10SM CLR 33/26 A2990 RMK AO2 T03340257=

Decoded Surface Observations


The weather observed at  (KEMV) at 06:55 PM UTC was:
  The skies were clear.
  Temperature: 95F ( 35C)  Dewpoint:  72F ( 22C)  Relative Humidity:  47%
  Winds from the CLM(CLM degs) at  0 mph.
  Altimeter:29.97 inches of mercury.
  The prevailing visibility was 10 miles.

The weather observed at  (KEMV) at 07:15 PM UTC was:
  The skies were clear.
  Temperature: 95F ( 35C)  Dewpoint:  72F ( 22C)  Relative Humidity:  47%
  Winds from the CLM(CLM degs) at  0 mph.
  Altimeter:29.96 inches of mercury.
  The prevailing visibility was 10 miles.

The weather observed at  (KEMV) at 07:35 PM UTC was:
  The skies were clear.
  Temperature: 95F ( 35C)  Dewpoint:  72F ( 22C)  Relative Humidity:  47%
  Winds from the E  (100 degs) at  3 mph.
  Altimeter:29.95 inches of mercury.
  The prevailing visibility was 10 miles.

The weather observed at  (KEMV) at 07:55 PM UTC was:
  The skies were clear.
  Temperature: 95F ( 35C)  Dewpoint:  72F ( 22C)  Relative Humidity:  47%
  Winds from the CLM(CLM degs) at  0 mph.
  Altimeter:29.94 inches of mercury.
  The prevailing visibility was 10 miles.

The weather observed at  (KEMV) at 08:15 PM UTC was:
  The skies were partly cloudy.
  Temperature: 95F ( 35C)  Dewpoint:  73F ( 23C)  Relative Humidity:  50%
  Winds from the CLM(CLM degs) at  0 mph.
  Altimeter:29.94 inches of mercury.
  The prevailing visibility was 10 miles.

The weather observed at  (KEMV) at 08:35 PM UTC was:
  The skies were clear.
  Temperature: 95F ( 35C)  Dewpoint:  73F ( 23C)  Relative Humidity:  50%
  Winds from the CLM(CLM degs) at  0 mph.
  Altimeter:29.94 inches of mercury.
  The prevailing visibility was 10 miles.

The weather observed at  (KEMV) at 08:55 PM UTC was:
  The skies were clear.
  Temperature: 95F ( 35C)  Dewpoint:  70F ( 21C)  Relative Humidity:  44%
  Winds from the CLM(CLM degs) at  0 mph.
  Altimeter:29.93 inches of mercury.
  The prevailing visibility was 10 miles.

The weather observed at  (KEMV) at 09:15 PM UTC was:
  The skies were clear.
  Temperature: 95F ( 35C)  Dewpoint:  72F ( 22C)  Relative Humidity:  47%
  Winds from the CLM(CLM degs) at  0 mph.
  Altimeter:29.92 inches of mercury.
  The prevailing visibility was 10 miles.

The weather observed at  (KEMV) at 09:35 PM UTC was:
  The skies were clear.
  Temperature: 95F ( 35C)  Dewpoint:  73F ( 23C)  Relative Humidity:  50%
  Winds from the CLM(CLM degs) at  0 mph.
  Altimeter:29.92 inches of mercury.
  The prevailing visibility was 10 miles.

The weather observed at  (KEMV) at 09:55 PM UTC was:
  The skies were clear.
  Temperature: 93F ( 34C)  Dewpoint:  75F ( 24C)  Relative Humidity:  56%
  Winds from the CLM(CLM degs) at  0 mph.
  Altimeter:29.91 inches of mercury.
  The prevailing visibility was 10 miles.

The weather observed at  (KEMV) at 10:15 PM UTC was:
  The skies were clear.
  Temperature: 93F ( 34C)  Dewpoint:  75F ( 24C)  Relative Humidity:  56%
  Winds from the SSE(160 degs) at  5 mph.
  Altimeter:29.90 inches of mercury.
  The prevailing visibility was 10 miles.

The weather observed at  (KEMV) at 10:35 PM UTC was:
  The skies were clear.
  Temperature: 91F ( 33C)  Dewpoint:  75F ( 24C)  Relative Humidity:  59%
  Winds from the CLM(CLM degs) at  0 mph.
  Altimeter:29.91 inches of mercury.
  The prevailing visibility was 10 miles.

The weather observed at  (KEMV) at 10:55 PM UTC was:
  The skies were clear.
  Temperature: 91F ( 33C)  Dewpoint:  75F ( 24C)  Relative Humidity:  59%
  Winds from the CLM(CLM degs) at  0 mph.
  Altimeter:29.91 inches of mercury.
  The prevailing visibility was 10 miles.

The weather observed at  (KEMV) at 11:15 PM UTC was:
  The skies were clear.
  Temperature: 91F ( 33C)  Dewpoint:  77F ( 25C)  Relative Humidity:  63%
  Winds from the CLM(CLM degs) at  0 mph.
  Altimeter:29.91 inches of mercury.
  The prevailing visibility was 10 miles.

The weather observed at  (KEMV) at 11:35 PM UTC was:
  The skies were clear.
  Temperature: 90F ( 32C)  Dewpoint:  77F ( 25C)  Relative Humidity:  67%
  Winds from the CLM(CLM degs) at  0 mph.
  Altimeter:29.92 inches of mercury.
  The prevailing visibility was 10 miles.

The weather observed at  (KEMV) at 11:55 PM UTC was:
  The skies were clear.
  Temperature: 88F ( 31C)  Dewpoint:  76F ( 25C)  Relative Humidity:  68%
  Winds from the CLM(CLM degs) at  0 mph.
  Altimeter:29.93 inches of mercury.
  The prevailing visibility was 10 miles.
  The maximum temperature in the past 6 hours was  95F.

The weather observed at  (KEMV) at 12:15 AM UTC was:
  The skies were clear.
  Temperature: 88F ( 31C)  Dewpoint:  77F ( 25C)  Relative Humidity:  70%
  Winds from the CLM(CLM degs) at  0 mph.
  Altimeter:29.93 inches of mercury.
  The prevailing visibility was 10 miles.

The weather observed at  (KEMV) at 12:35 AM UTC was:
  The skies were clear.
  Temperature: 86F ( 30C)  Dewpoint:  77F ( 25C)  Relative Humidity:  75%
  Winds from the CLM(CLM degs) at  0 mph.
  Altimeter:29.94 inches of mercury.
  The prevailing visibility was 10 miles.

The weather observed at  (KEMV) at 12:55 AM UTC was:
  The skies were clear.
  Temperature: 84F ( 29C)  Dewpoint:  77F ( 25C)  Relative Humidity:  79%
  Winds from the CLM(CLM degs) at  0 mph.
  Altimeter:29.93 inches of mercury.
  The prevailing visibility was 10 miles.

The weather observed at  (KEMV) at 01:15 AM UTC was:
  The skies were clear.
  Temperature: 84F ( 29C)  Dewpoint:  77F ( 25C)  Relative Humidity:  79%
  Winds from the CLM(CLM degs) at  0 mph.
  Altimeter:29.92 inches of mercury.
  The prevailing visibility was 7 miles.

The weather observed at  (KEMV) at 01:35 AM UTC was:
  The skies were clear.
  The weather reported was haze.
  Temperature: 84F ( 29C)  Dewpoint:  77F ( 25C)  Relative Humidity:  79%
  Winds from the CLM(CLM degs) at  0 mph.
  Altimeter:29.93 inches of mercury.
  The prevailing visibility was 2.5 miles.

The weather observed at  (KEMV) at 01:55 AM UTC was:
  The skies were clear.
  Temperature: 79F ( 26C)  Dewpoint:  77F ( 25C)  Relative Humidity:  94%
  Winds from the CLM(CLM degs) at  0 mph.
  Altimeter:29.94 inches of mercury.
  The prevailing visibility was 10 miles.

The weather observed at  (KEMV) at 02:15 AM UTC was:
  The skies were clear.
  Temperature: 82F ( 28C)  Dewpoint:  75F ( 24C)  Relative Humidity:  79%
  Winds from the CLM(CLM degs) at  0 mph.
  Altimeter:29.93 inches of mercury.
  The prevailing visibility was 10 miles.

The weather observed at  (KEMV) at 02:35 AM UTC was:
  The skies were clear.
  Temperature: 82F ( 28C)  Dewpoint:  73F ( 23C)  Relative Humidity:  74%
  Winds from the CLM(CLM degs) at  0 mph.
  Altimeter:29.93 inches of mercury.
  The prevailing visibility was 10 miles.

The weather observed at  (KEMV) at 02:55 AM UTC was:
  The skies were clear.
  Temperature: 82F ( 28C)  Dewpoint:  73F ( 23C)  Relative Humidity:  74%
  Winds from the CLM(CLM degs) at  0 mph.
  Altimeter:29.94 inches of mercury.
  The prevailing visibility was 10 miles.

The weather observed at  (KEMV) at 03:15 AM UTC was:
  The skies were clear.
  Temperature: 82F ( 28C)  Dewpoint:  73F ( 23C)  Relative Humidity:  74%
  Winds from the CLM(CLM degs) at  0 mph.
  Altimeter:29.93 inches of mercury.
  The prevailing visibility was 10 miles.

The weather observed at  (KEMV) at 03:35 AM UTC was:
  The skies were clear.
  Temperature: 81F ( 27C)  Dewpoint:  72F ( 22C)  Relative Humidity:  74%
  Winds from the CLM(CLM degs) at  0 mph.
  Altimeter:29.94 inches of mercury.
  The prevailing visibility was 10 miles.

The weather observed at  (KEMV) at 03:55 AM UTC was:
  The skies were clear.
  Temperature: 81F ( 27C)  Dewpoint:  72F ( 22C)  Relative Humidity:  74%
  Winds from the CLM(CLM degs) at  0 mph.
  Altimeter:29.94 inches of mercury.
  The prevailing visibility was 10 miles.

The weather observed at  (KEMV) at 04:15 AM UTC was:
  The skies were clear.
  Temperature: 79F ( 26C)  Dewpoint:  72F ( 22C)  Relative Humidity:  79%
  Winds from the CLM(CLM degs) at  0 mph.
  Altimeter:29.93 inches of mercury.
  The prevailing visibility was 10 miles.

The weather observed at  (KEMV) at 04:35 AM UTC was:
  The skies were clear.
  Temperature: 79F ( 26C)  Dewpoint:  72F ( 22C)  Relative Humidity:  79%
  Winds from the CLM(CLM degs) at  0 mph.
  Altimeter:29.94 inches of mercury.
  The prevailing visibility was 10 miles.

The weather observed at  (KEMV) at 04:55 AM UTC was:
  The skies were clear.
  Temperature: 79F ( 26C)  Dewpoint:  72F ( 22C)  Relative Humidity:  79%
  Winds from the CLM(CLM degs) at  0 mph.
  Altimeter:29.93 inches of mercury.
  The prevailing visibility was 10 miles.

The weather observed at  (KEMV) at 05:15 AM UTC was:
  The skies were clear.
  Temperature: 79F ( 26C)  Dewpoint:  72F ( 22C)  Relative Humidity:  79%
  Winds from the CLM(CLM degs) at  0 mph.
  Altimeter:29.93 inches of mercury.
  The prevailing visibility was 10 miles.

The weather observed at  (KEMV) at 05:35 AM UTC was:
  The skies were clear.
  Temperature: 79F ( 26C)  Dewpoint:  72F ( 22C)  Relative Humidity:  79%
  Winds from the CLM(CLM degs) at  0 mph.
  Altimeter:29.93 inches of mercury.
  The prevailing visibility was 10 miles.

The weather observed at  (KEMV) at 05:55 AM UTC was:
  The skies were clear.
  Temperature: 77F ( 25C)  Dewpoint:  71F ( 22C)  Relative Humidity:  81%
  Winds from the CLM(CLM degs) at  0 mph.
  Altimeter:29.92 inches of mercury.
  The prevailing visibility was 10 miles.
  The maximum temperature in the past 6 hours was  88F.

The weather observed at  (KEMV) at 06:15 AM UTC was:
  The skies were clear.
  Temperature: 77F ( 25C)  Dewpoint:  72F ( 22C)  Relative Humidity:  83%
  Winds from the CLM(CLM degs) at  0 mph.
  Altimeter:29.92 inches of mercury.
  The prevailing visibility was 10 miles.

The weather observed at  (KEMV) at 06:35 AM UTC was:
  The skies were clear.
  Temperature: 77F ( 25C)  Dewpoint:  72F ( 22C)  Relative Humidity:  83%
  Winds from the CLM(CLM degs) at  0 mph.
  Altimeter:29.92 inches of mercury.
  The prevailing visibility was 10 miles.

The weather observed at  (KEMV) at 06:55 AM UTC was:
  The skies were clear.
  Temperature: 76F ( 25C)  Dewpoint:  71F ( 22C)  Relative Humidity:  84%
  Winds from the CLM(CLM degs) at  0 mph.
  Altimeter:29.92 inches of mercury.
  The prevailing visibility was 10 miles.

The weather observed at  (KEMV) at 07:15 AM UTC was:
  The skies were clear.
  Temperature: 75F ( 24C)  Dewpoint:  72F ( 22C)  Relative Humidity:  89%
  Winds from the CLM(CLM degs) at  0 mph.
  Altimeter:29.92 inches of mercury.
  The prevailing visibility was 10 miles.

The weather observed at  (KEMV) at 07:35 AM UTC was:
  The skies were clear.
  Temperature: 75F ( 24C)  Dewpoint:  72F ( 22C)  Relative Humidity:  89%
  Winds from the CLM(CLM degs) at  0 mph.
  Altimeter:29.92 inches of mercury.
  The prevailing visibility was 10 miles.

The weather observed at  (KEMV) at 07:55 AM UTC was:
  The skies were clear.
  Temperature: 75F ( 24C)  Dewpoint:  72F ( 22C)  Relative Humidity:  89%
  Winds from the CLM(CLM degs) at  0 mph.
  Altimeter:29.92 inches of mercury.
  The prevailing visibility was 10 miles.

The weather observed at  (KEMV) at 08:15 AM UTC was:
  The skies were clear.
  Temperature: 73F ( 23C)  Dewpoint:  72F ( 22C)  Relative Humidity:  94%
  Winds from the CLM(CLM degs) at  0 mph.
  Altimeter:29.92 inches of mercury.
  The prevailing visibility was 10 miles.

The weather observed at  (KEMV) at 08:35 AM UTC was:
  The skies were clear.
  Temperature: 73F ( 23C)  Dewpoint:  72F ( 22C)  Relative Humidity:  94%
  Winds from the CLM(CLM degs) at  0 mph.
  Altimeter:29.93 inches of mercury.
  The prevailing visibility was 10 miles.

The weather observed at  (KEMV) at 08:55 AM UTC was:
  The skies were clear.
  Temperature: 73F ( 23C)  Dewpoint:  72F ( 22C)  Relative Humidity:  94%
  Winds from the CLM(CLM degs) at  0 mph.
  Altimeter:29.94 inches of mercury.
  The prevailing visibility was 10 miles.

The weather observed at  (KEMV) at 09:15 AM UTC was:
  The skies were clear.
  Temperature: 73F ( 23C)  Dewpoint:  72F ( 22C)  Relative Humidity:  94%
  Winds from the CLM(CLM degs) at  0 mph.
  Altimeter:29.94 inches of mercury.
  The prevailing visibility was 10 miles.

The weather observed at  (KEMV) at 09:35 AM UTC was:
  The skies were clear.
  Temperature: 73F ( 23C)  Dewpoint:  72F ( 22C)  Relative Humidity:  94%
  Winds from the CLM(CLM degs) at  0 mph.
  Altimeter:29.94 inches of mercury.
  The prevailing visibility was 10 miles.

The weather observed at  (KEMV) at 09:55 AM UTC was:
  The skies were clear.
  Temperature: 73F ( 23C)  Dewpoint:  72F ( 22C)  Relative Humidity:  94%
  Winds from the CLM(CLM degs) at  0 mph.
  Altimeter:29.94 inches of mercury.
  The prevailing visibility was 10 miles.

The weather observed at  (KEMV) at 10:15 AM UTC was:
  The skies were clear.
  Temperature: 73F ( 23C)  Dewpoint:  72F ( 22C)  Relative Humidity:  94%
  Winds from the CLM(CLM degs) at  0 mph.
  Altimeter:29.94 inches of mercury.
  The prevailing visibility was 10 miles.

The weather observed at  (KEMV) at 10:35 AM UTC was:
  The skies were clear.
  Temperature: 75F ( 24C)  Dewpoint:  72F ( 22C)  Relative Humidity:  89%
  Winds from the CLM(CLM degs) at  0 mph.
  Altimeter:29.94 inches of mercury.
  The prevailing visibility was 10 miles.

The weather observed at  (KEMV) at 10:55 AM UTC was:
  The skies were clear.
  Temperature: 75F ( 24C)  Dewpoint:  72F ( 22C)  Relative Humidity:  89%
  Winds from the CLM(CLM degs) at  0 mph.
  Altimeter:29.94 inches of mercury.
  The prevailing visibility was 10 miles.

The weather observed at  (KEMV) at 11:15 AM UTC was:
  The skies were clear.
  Temperature: 75F ( 24C)  Dewpoint:  72F ( 22C)  Relative Humidity:  89%
  Winds from the CLM(CLM degs) at  0 mph.
  Altimeter:29.94 inches of mercury.
  The prevailing visibility was 10 miles.

The weather observed at  (KEMV) at 11:35 AM UTC was:
  The skies were clear.
  Temperature: 75F ( 24C)  Dewpoint:  72F ( 22C)  Relative Humidity:  89%
  Winds from the CLM(CLM degs) at  0 mph.
  Altimeter:29.94 inches of mercury.
  The prevailing visibility was 10 miles.

The weather observed at  (KEMV) at 11:55 AM UTC was:
  The skies were clear.
  Temperature: 77F ( 25C)  Dewpoint:  73F ( 23C)  Relative Humidity:  86%
  Winds from the CLM(CLM degs) at  0 mph.
  Altimeter:29.95 inches of mercury.
  The prevailing visibility was 10 miles.
  The maximum temperature in the past 6 hours was  77F.

The weather observed at  (KEMV) at 12:15 PM UTC was:
  The skies were clear.
  Temperature: 79F ( 26C)  Dewpoint:  73F ( 23C)  Relative Humidity:  84%
  Winds from the CLM(CLM degs) at  0 mph.
  Altimeter:29.95 inches of mercury.
  The prevailing visibility was 10 miles.

The weather observed at  (KEMV) at 12:35 PM UTC was:
  The skies were clear.
  Temperature: 79F ( 26C)  Dewpoint:  73F ( 23C)  Relative Humidity:  84%
  Winds from the CLM(CLM degs) at  0 mph.
  Altimeter:29.96 inches of mercury.
  The prevailing visibility was 10 miles.

The weather observed at  (KEMV) at 12:55 PM UTC was:
  The skies were clear.
  Temperature: 79F ( 26C)  Dewpoint:  73F ( 23C)  Relative Humidity:  84%
  Winds from the CLM(CLM degs) at  0 mph.
  Altimeter:29.96 inches of mercury.
  The prevailing visibility was 10 miles.

The weather observed at  (KEMV) at 01:15 PM UTC was:
  The skies were clear.
  Temperature: 81F ( 27C)  Dewpoint:  73F ( 23C)  Relative Humidity:  79%
  Winds from the CLM(CLM degs) at  0 mph.
  Altimeter:29.96 inches of mercury.
  The prevailing visibility was 10 miles.

The weather observed at  (KEMV) at 01:35 PM UTC was:
  The skies were clear.
  Temperature: 81F ( 27C)  Dewpoint:  75F ( 24C)  Relative Humidity:  84%
  Winds from the CLM(CLM degs) at  0 mph.
  Altimeter:29.96 inches of mercury.
  The prevailing visibility was 10 miles.

The weather observed at  (KEMV) at 01:55 PM UTC was:
  The skies were clear.
  Temperature: 81F ( 27C)  Dewpoint:  75F ( 24C)  Relative Humidity:  84%
  Winds from the CLM(CLM degs) at  0 mph.
  Altimeter:29.96 inches of mercury.
  The prevailing visibility was 10 miles.

The weather observed at  (KEMV) at 02:15 PM UTC was:
  The skies were clear.
  Temperature: 82F ( 28C)  Dewpoint:  75F ( 24C)  Relative Humidity:  79%
  Winds from the CLM(CLM degs) at  0 mph.
  Altimeter:29.95 inches of mercury.
  The prevailing visibility was 10 miles.

The weather observed at  (KEMV) at 02:35 PM UTC was:
  The skies were clear.
  Temperature: 84F ( 29C)  Dewpoint:  75F ( 24C)  Relative Humidity:  74%
  Winds from the CLM(CLM degs) at  0 mph.
  Altimeter:29.95 inches of mercury.
  The prevailing visibility was 10 miles.

The weather observed at  (KEMV) at 02:55 PM UTC was:
  The skies were clear.
  Temperature: 84F ( 29C)  Dewpoint:  75F ( 24C)  Relative Humidity:  74%
  Winds from the CLM(CLM degs) at  0 mph.
  Altimeter:29.96 inches of mercury.
  The prevailing visibility was 10 miles.

The weather observed at  (KEMV) at 03:15 PM UTC was:
  The skies were clear.
  Temperature: 86F ( 30C)  Dewpoint:  75F ( 24C)  Relative Humidity:  70%
  Winds from the CLM(CLM degs) at  0 mph.
  Altimeter:29.96 inches of mercury.
  The prevailing visibility was 10 miles.

The weather observed at  (KEMV) at 03:35 PM UTC was:
  The skies were clear.
  Temperature: 86F ( 30C)  Dewpoint:  75F ( 24C)  Relative Humidity:  70%
  Winds from the CLM(CLM degs) at  0 mph.
  Altimeter:29.96 inches of mercury.
  The prevailing visibility was 10 miles.

The weather observed at  (KEMV) at 03:55 PM UTC was:
  The skies were clear.
  Temperature: 88F ( 31C)  Dewpoint:  77F ( 25C)  Relative Humidity:  70%
  Winds from the CLM(CLM degs) at  0 mph.
  Altimeter:29.96 inches of mercury.
  The prevailing visibility was 10 miles.

The weather observed at  (KEMV) at 04:15 PM UTC was:
  The skies were clear.
  Temperature: 88F ( 31C)  Dewpoint:  77F ( 25C)  Relative Humidity:  70%
  Winds from the S  (190 degs) at  7 mph.
  Altimeter:29.95 inches of mercury.
  The prevailing visibility was 10 miles.

The weather observed at  (KEMV) at 04:35 PM UTC was:
  The skies were clear.
  Temperature: 90F ( 32C)  Dewpoint:  77F ( 25C)  Relative Humidity:  67%
  Winds from the CLM(CLM degs) at  0 mph.
  Altimeter:29.94 inches of mercury.
  The prevailing visibility was 10 miles.

The weather observed at  (KEMV) at 04:55 PM UTC was:
  The skies were clear.
  Temperature: 90F ( 32C)  Dewpoint:  77F ( 25C)  Relative Humidity:  67%
  Winds from the CLM(CLM degs) at  0 mph.
  Altimeter:29.94 inches of mercury.
  The prevailing visibility was 10 miles.

The weather observed at  (KEMV) at 05:15 PM UTC was:
  The skies were clear.
  Temperature: 90F ( 32C)  Dewpoint:  77F ( 25C)  Relative Humidity:  67%
  Winds from the CLM(CLM degs) at  0 mph.
  Altimeter:29.94 inches of mercury.
  The prevailing visibility was 10 miles.

The weather observed at  (KEMV) at 05:35 PM UTC was:
  The skies were clear.
  Temperature: 91F ( 33C)  Dewpoint:  77F ( 25C)  Relative Humidity:  63%
  Winds from the S  (170 degs) at  8 mph.
  Altimeter:29.93 inches of mercury.
  The prevailing visibility was 10 miles.

The weather observed at  (KEMV) at 05:55 PM UTC was:
  The skies were clear.
  Temperature: 91F ( 33C)  Dewpoint:  77F ( 25C)  Relative Humidity:  64%
  Winds from the S  (170 degs) at  6 mph.
  Altimeter:29.93 inches of mercury.
  The prevailing visibility was 10 miles.
  The maximum temperature in the past 6 hours was  91F.

The weather observed at  (KEMV) at 06:15 PM UTC was:
  The skies were clear.
  Temperature: 91F ( 33C)  Dewpoint:  77F ( 25C)  Relative Humidity:  63%
  Winds from the S  (170 degs) at  9 mph.
  Altimeter:29.93 inches of mercury.
  The prevailing visibility was 10 miles.

The weather observed at  (KEMV) at 06:35 PM UTC was:
  The skies were clear.
  Temperature: 91F ( 33C)  Dewpoint:  77F ( 25C)  Relative Humidity:  63%
  Winds from the S  (190 degs) at  8 mph.
  Altimeter:29.92 inches of mercury.
  The prevailing visibility was 10 miles.

The weather observed at  (KEMV) at 06:55 PM UTC was:
  The skies were clear.
  Temperature: 91F ( 33C)  Dewpoint:  77F ( 25C)  Relative Humidity:  63%
  Winds from the S  (170 degs) at  8 mph.
  Altimeter:29.92 inches of mercury.
  The prevailing visibility was 10 miles.

The weather observed at  (KEMV) at 07:15 PM UTC was:
  The skies were clear.
  Temperature: 91F ( 33C)  Dewpoint:  77F ( 25C)  Relative Humidity:  63%
  Winds from the S  (170 degs) at  6 mph.
  Altimeter:29.91 inches of mercury.
  The prevailing visibility was 10 miles.

The weather observed at  (KEMV) at 07:35 PM UTC was:
  The skies were clear.
  Temperature: 91F ( 33C)  Dewpoint:  79F ( 26C)  Relative Humidity:  67%
  Winds from the S  (170 degs) at  9 mph.
  Altimeter:29.90 inches of mercury.
  The prevailing visibility was 10 miles.

Short Range Forecast

Sorry no data found for emv
Make sure emv is a valid station
You might need to specify a nearby major city
Try Again

Zone Forecast

State Forecast

Sorry no data found for emv
Make sure emv is a valid station
You might need to specify a nearby major city
Try Again

State Forecast Discussion

Sorry no data found for emv
Make sure emv is a valid station
You might need to specify a nearby major city
Try Again

GFS Short-Range Model Output Statistics (MOS) Forecast

KEMV   GFS MOS GUIDANCE    7/16/2024  1200 UTC
DT /JULY 16/JULY 17                /JULY 18                /JULY 19
HR   18 21 00 03 06 09 12 15 18 21 00 03 06 09 12 15 18 21 00 06 12
N/X                    76          95          73          85    69
TMP  93 96 88 81 79 78 80 88 93 91 84 78 75 74 75 78 82 81 76 71 72
DPT  74 73 74 74 74 74 75 75 74 74 75 74 73 73 73 74 73 73 73 71 70
CLD  FW SC BK BK SC SC BK SC BK BK OV OV OV OV OV OV OV OV OV OV OV
WDR  19 18 16 16 16 16 17 19 19 17 16 19 17 21 18 29 34 35 01 00 33
WSP  07 10 07 05 03 03 05 09 10 08 08 04 03 01 02 03 04 04 02 00 03
P06         6     6    10     7    47    43    27    33    52 37 20
P12                    10          47          58          66    46
Q06         0     0     0     0     2     1     0     1     4  1  0
Q12                     0           1           2           4     1
T06     27/24 18/10  2/ 1  8/ 1 47/27 26/ 7 16/ 1 23/ 0 44/13  8/ 0
T12           37/24        8/ 3       57/29       31/ 2    49/13
CIG   8  8  8  8  8  8  8  8  8  8  8  7  7  2  2  4  5  6  6  5  6
VIS   7  7  7  7  7  7  7  7  7  7  7  7  7  7  6  7  7  7  7  5  7
OBV   N  N  N  N  N  N  N  N  N  N  N  N  N  N  N  N  N  N  N BR  N

GFS Long-Range Model Output Statistics (MOS) Forecast

KEMV   GFSX MOS GUIDANCE   7/16/2024  1200 UTC
FHR  24  36| 48  60| 72  84| 96 108|120 132|144 156|168 180|192
     WED 17| THU 18| FRI 19| SAT 20| SUN 21| MON 22| TUE 23|WED CLIMO
N/X  76  95| 73  85| 69  87| 67  85| 69  90| 69  88| 69  91| 71 67 89
TMP  80  84| 75  76| 72  79| 71  77| 73  81| 73  80| 73  82| 74
DPT  75  75| 73  73| 70  69| 70  72| 72  73| 70  73| 71  72| 72
CLD  OV  OV| OV  OV| OV  OV| OV  OV| OV  OV| OV  OV| OV  PC| PC
WND   7  10|  8   4|  3   5|  3   4|  2   5|  4   5|  3   6|  4
P12  10  47| 58  66| 46  34| 24  49| 35  37| 39  40| 36  34| 26999999
P24      47|     81|     57|     53|     54|     58|     57|      999
Q12   0   1|  2   4|  1   0|  0   2|  1   1|  2   4|       |
Q24       1|      5|      1|      1|      1|      3|       |
T12  18  47| 33  50| 32  27| 15  39| 26  41| 28  39| 25  35| 20
T24        | 59    | 52    | 29    | 52    | 54    | 43    | 35

NGM Model Output Statistics (MOS) Forecast

Climatological Summary

Sorry no data found for emv
Make sure emv is a valid station
You might need to specify a nearby major city
Try Again

Watch and Warning Statment

Sorry no data found for emv
Make sure emv is a valid station
You might need to specify a nearby major city
or it could be THERE ARE NO WATCHES OR WARNINGS for emv
Try Again

Park/Ski Recreation Report/Forecast

Sorry no data found for emv
Make sure emv is a valid station
You might need to specify a nearby major city
Try Again